Time;durP1;ratioP1;P1;durP2;ratioP2;P2;SDS_P1;SDS_P2;PMS_P1;PMS_P2;Temp;Humidity;BMP_temperature;BMP_pressure;BME280_temperature;BME280_humidity;BME280_pressure;Samples;Min_cycle;Max_cycle;Signal;HPM_P1;HPM_P2
2023/12/17 00:01:16;;;;;;;36.47;31.30;;;2.40;99.90;;;;;;5017228;28;20844;-79
2023/12/17 00:03:43;;;;;;;27.33;24.30;;;2.30;99.90;;;;;;5015691;28;20442;-81
2023/12/17 00:06:09;;;;;;;29.43;24.43;;;2.30;99.90;;;;;;5013800;28;21039;-79
2023/12/17 00:08:36;;;;;;;31.40;25.37;;;2.30;99.90;;;;;;5013664;28;20422;-79
2023/12/17 00:11:03;;;;;;;31.03;26.73;;;2.30;99.90;;;;;;5014809;28;20462;-80
2023/12/17 00:13:29;;;;;;;28.80;24.33;;;2.30;99.90;;;;;;5013552;28;20461;-79
2023/12/17 00:15:58;;;;;;;26.13;23.33;;;2.20;99.90;;;;;;5013710;28;20500;-80
2023/12/17 00:18:24;;;;;;;30.37;23.77;;;2.20;99.90;;;;;;5013617;28;20477;-80
2023/12/17 00:20:51;;;;;;;30.33;23.87;;;2.20;99.90;;;;;;5013756;28;20500;-80
2023/12/17 00:23:18;;;;;;;28.80;24.40;;;2.20;99.90;;;;;;5013444;28;20812;-79
2023/12/17 00:25:44;;;;;;;27.00;24.10;;;2.20;99.90;;;;;;5013678;28;20458;-80
2023/12/17 00:28:11;;;;;;;28.07;24.73;;;2.10;99.90;;;;;;5013623;28;20440;-81
2023/12/17 00:30:40;;;;;;;27.20;22.80;;;2.30;99.90;;;;;;5013379;28;20455;-80
2023/12/17 00:33:08;;;;;;;28.87;25.00;;;2.30;99.90;;;;;;5013443;28;20937;-80
2023/12/17 00:35:35;;;;;;;27.70;23.50;;;2.10;99.90;;;;;;5014027;28;20553;-81
2023/12/17 00:38:02;;;;;;;28.33;23.03;;;2.10;99.90;;;;;;5014017;28;20455;-80
2023/12/17 00:40:28;;;;;;;29.37;24.10;;;2.20;99.90;;;;;;5014321;28;20488;-79
2023/12/17 00:42:55;;;;;;;32.20;26.83;;;2.10;99.90;;;;;;5013464;28;20497;-82
2023/12/17 00:45:22;;;;;;;30.07;25.03;;;2.30;99.90;;;;;;5014179;28;20456;-81
2023/12/17 00:47:49;;;;;;;28.07;23.27;;;2.10;99.90;;;;;;5013572;28;20442;-80
2023/12/17 00:50:17;;;;;;;27.20;24.27;;;2.40;99.90;;;;;;5013238;28;20464;-81
2023/12/17 00:52:44;;;;;;;25.30;22.27;;;2.10;99.90;;;;;;5014333;28;20461;-80
2023/12/17 00:55:12;;;;;;;26.30;23.50;;;2.10;99.90;;;;;;5014227;28;20540;-80
2023/12/17 00:57:39;;;;;;;30.13;23.10;;;2.00;99.90;;;;;;5014860;28;20450;-79
2023/12/17 01:00:07;;;;;;;26.93;23.93;;;2.10;99.90;;;;;;5014703;28;20507;-80
2023/12/17 01:02:34;;;;;;;24.30;21.70;;;2.10;99.90;;;;;;5013378;28;20458;-79
2023/12/17 01:05:01;;;;;;;23.73;21.23;;;2.10;99.90;;;;;;5012567;28;20947;-79
2023/12/17 01:07:30;;;;;;;25.03;22.23;;;2.10;99.90;;;;;;5013546;28;20464;-80
2023/12/17 01:09:56;;;;;;;28.50;22.93;;;2.10;99.90;;;;;;5013733;28;20479;-80
2023/12/17 01:12:23;;;;;;;25.27;22.63;;;2.00;99.90;;;;;;5013494;28;20449;-79
2023/12/17 01:14:50;;;;;;;25.53;21.73;;;2.00;99.90;;;;;;5013546;28;20458;-79
2023/12/17 01:17:17;;;;;;;24.17;21.43;;;2.00;99.90;;;;;;5013258;28;20948;-79
2023/12/17 01:19:44;;;;;;;24.70;21.50;;;2.00;99.90;;;;;;5014014;28;20496;-79
2023/12/17 01:22:10;;;;;;;28.93;22.03;;;2.00;99.90;;;;;;5031506;28;20460;-82
2023/12/17 01:24:41;;;;;;;23.13;20.50;;;1.80;99.90;;;;;;5034842;28;20475;-79
2023/12/17 01:27:08;;;;;;;22.70;20.40;;;1.80;99.90;;;;;;5019288;28;21001;-79
2023/12/17 01:29:34;;;;;;;24.33;20.50;;;1.80;99.90;;;;;;5019776;28;20449;-79
2023/12/17 01:32:01;;;;;;;23.30;20.60;;;1.80;99.90;;;;;;5019621;28;20445;-79
2023/12/17 01:34:28;;;;;;;24.13;20.80;;;1.80;99.90;;;;;;5016734;28;20504;-82
2023/12/17 01:36:55;;;;;;;23.63;21.17;;;1.80;99.90;;;;;;5016919;28;20545;-79
2023/12/17 01:39:22;;;;;;;24.37;21.73;;;1.80;99.90;;;;;;5017008;28;20476;-80
2023/12/17 01:41:50;;;;;;;25.43;22.70;;;1.80;99.90;;;;;;5016357;28;20473;-80
2023/12/17 01:44:17;;;;;;;26.87;22.93;;;1.80;99.90;;;;;;5016238;28;20441;-80
2023/12/17 01:46:44;;;;;;;23.97;21.50;;;1.90;99.90;;;;;;5016278;28;20440;-79
2023/12/17 01:49:11;;;;;;;23.47;20.93;;;1.90;99.90;;;;;;5017662;28;20433;-80
2023/12/17 01:51:39;;;;;;;24.27;21.50;;;1.90;99.90;;;;;;5020596;28;20461;-80
2023/12/17 01:54:06;;;;;;;26.40;22.30;;;1.80;99.90;;;;;;5020098;28;20954;-80
2023/12/17 01:56:33;;;;;;;25.53;22.80;;;1.80;99.90;;;;;;5020962;28;20449;-79
2023/12/17 01:59:02;;;;;;;26.33;22.63;;;1.70;99.90;;;;;;5018811;28;20441;-79
2023/12/17 02:01:29;;;;;;;24.67;21.97;;;1.70;99.90;;;;;;5019002;28;20539;-78
2023/12/17 02:03:56;;;;;;;27.83;22.00;;;1.70;99.90;;;;;;5016324;28;20454;-79
2023/12/17 02:06:23;;;;;;;24.00;21.33;;;1.70;99.90;;;;;;4996582;28;20504;-82
2023/12/17 02:08:50;;;;;;;24.03;21.53;;;1.70;99.90;;;;;;4995969;28;20517;-79
2023/12/17 02:11:16;;;;;;;24.60;21.97;;;1.70;99.90;;;;;;4995870;28;20515;-79
2023/12/17 02:13:43;;;;;;;25.40;21.27;;;1.70;99.90;;;;;;4995640;28;20651;-80
2023/12/17 02:16:13;;;;;;;25.40;22.17;;;1.70;99.90;;;;;;4995341;28;20839;-79
2023/12/17 02:18:39;;;;;;;27.10;24.20;;;1.70;99.90;;;;;;4995394;28;20445;-79
2023/12/17 02:21:06;;;;;;;28.70;23.40;;;1.70;99.90;;;;;;4996040;28;20496;-80
2023/12/17 02:23:34;;;;;;;26.23;23.40;;;1.70;99.90;;;;;;4995202;28;21026;-79
2023/12/17 02:26:03;;;;;;;27.53;22.77;;;1.70;99.90;;;;;;4995555;28;20879;-79
2023/12/17 02:28:30;;;;;;;26.80;22.47;;;1.70;99.90;;;;;;4996114;28;20506;-79
2023/12/17 02:30:56;;;;;;;25.43;22.73;;;1.70;99.90;;;;;;4995752;28;20465;-79
2023/12/17 02:33:25;;;;;;;24.50;21.83;;;1.70;99.90;;;;;;4995136;28;20454;-79
2023/12/17 02:35:52;;;;;;;25.07;22.37;;;1.60;99.90;;;;;;4994124;28;20822;-79
2023/12/17 02:38:19;;;;;;;25.13;21.93;;;1.60;99.90;;;;;;4994944;28;20489;-79
2023/12/17 02:40:47;;;;;;;24.47;21.83;;;1.90;99.90;;;;;;4995118;28;20494;-79
2023/12/17 02:43:13;;;;;;;25.60;22.30;;;1.70;99.90;;;;;;4995597;28;20468;-80
2023/12/17 02:45:40;;;;;;;28.33;22.00;;;1.60;99.90;;;;;;4995295;28;20445;-79
2023/12/17 02:48:07;;;;;;;26.10;21.60;;;1.50;99.90;;;;;;4994736;28;20453;-79
2023/12/17 02:50:33;;;;;;;24.23;21.60;;;1.40;99.90;;;;;;4994590;28;21020;-79
2023/12/17 02:53:00;;;;;;;23.90;21.10;;;1.50;99.90;;;;;;4995663;28;20513;-80
2023/12/17 02:55:27;;;;;;;29.40;21.17;;;1.50;99.90;;;;;;4996048;28;20440;-80
2023/12/17 02:57:55;;;;;;;22.10;19.80;;;1.40;99.90;;;;;;4994954;28;20441;-79
2023/12/17 03:00:21;;;;;;;22.27;19.97;;;1.50;99.90;;;;;;4995428;28;20484;-80
2023/12/17 03:02:48;;;;;;;21.40;19.10;;;1.50;99.90;;;;;;4995115;28;20810;-79
2023/12/17 03:05:15;;;;;;;23.17;20.07;;;1.50;99.90;;;;;;5005494;28;20827;-79
2023/12/17 03:07:42;;;;;;;23.90;20.20;;;1.50;99.90;;;;;;5014539;28;20452;-79
2023/12/17 03:10:09;;;;;;;22.73;19.80;;;1.50;99.90;;;;;;5014687;28;20497;-79
2023/12/17 03:12:36;;;;;;;21.50;19.37;;;1.50;99.90;;;;;;5014412;28;20454;-79
2023/12/17 03:15:07;;;;;;;22.83;20.07;;;1.50;99.90;;;;;;5013742;28;20452;-79
2023/12/17 03:17:35;;;;;;;21.13;19.00;;;1.30;99.90;;;;;;5013704;28;20492;-80
2023/12/17 03:20:04;;;;;;;22.50;19.23;;;1.30;99.90;;;;;;5014007;28;20479;-79
2023/12/17 03:22:30;;;;;;;21.40;19.20;;;1.30;99.90;;;;;;5013877;28;20996;-79
2023/12/17 03:25:01;;;;;;;20.80;18.60;;;1.40;99.90;;;;;;5013826;28;20455;-79
2023/12/17 03:27:27;;;;;;;20.60;18.60;;;1.30;99.90;;;;;;5013901;28;20435;-80
2023/12/17 03:29:54;;;;;;;21.50;19.30;;;1.30;99.90;;;;;;5015619;28;21007;-80
2023/12/17 03:32:22;;;;;;;21.87;19.63;;;1.60;99.90;;;;;;5013973;28;20448;-80
2023/12/17 03:34:49;;;;;;;21.63;19.40;;;1.30;99.90;;;;;;5014234;28;20448;-80
2023/12/17 03:37:18;;;;;;;21.23;18.00;;;1.30;99.90;;;;;;5014453;28;20444;-79
2023/12/17 03:39:45;;;;;;;20.43;18.27;;;1.30;99.90;;;;;;5013357;28;20846;-82
2023/12/17 03:42:12;;;;;;;22.00;18.20;;;1.20;99.90;;;;;;5013881;28;20487;-79
2023/12/17 03:44:38;;;;;;;19.53;17.63;;;1.20;99.90;;;;;;5013243;28;20440;-80
2023/12/17 03:47:05;;;;;;;21.63;19.30;;;1.30;99.90;;;;;;5014308;28;20513;-82
2023/12/17 03:49:36;;;;;;;20.80;18.60;;;1.30;99.90;;;;;;5013601;28;20874;-79
2023/12/17 03:52:03;;;;;;;21.00;18.83;;;1.50;99.90;;;;;;5014095;28;20436;-80
2023/12/17 03:54:30;;;;;;;22.73;18.57;;;1.20;99.90;;;;;;5014176;28;20503;-79
2023/12/17 03:56:57;;;;;;;20.13;18.20;;;1.20;99.90;;;;;;5013494;28;20444;-79
2023/12/17 03:59:23;;;;;;;20.40;18.30;;;1.30;99.90;;;;;;5013543;28;20445;-80
2023/12/17 04:01:53;;;;;;;21.00;18.87;;;1.20;99.90;;;;;;5013615;28;20574;-80
2023/12/17 04:04:20;;;;;;;18.20;16.50;;;1.20;99.90;;;;;;5026582;28;20447;-80
2023/12/17 04:06:48;;;;;;;19.80;17.80;;;1.40;99.90;;;;;;5034285;28;20473;-79
2023/12/17 04:09:16;;;;;;;19.43;17.57;;;1.40;99.90;;;;;;5015088;28;20439;-79
2023/12/17 04:11:42;;;;;;;19.37;17.30;;;1.10;99.90;;;;;;5013759;28;20460;-79
2023/12/17 04:14:09;;;;;;;20.30;18.10;;;1.10;99.90;;;;;;5013414;28;20444;-79
2023/12/17 04:16:36;;;;;;;19.70;16.40;;;1.10;99.90;;;;;;5013830;28;20440;-80
2023/12/17 04:19:05;;;;;;;18.17;16.23;;;1.10;99.90;;;;;;5023466;28;20439;-81
2023/12/17 04:21:32;;;;;;;18.03;16.13;;;1.10;99.90;;;;;;5034337;28;20484;-79
2023/12/17 04:24:00;;;;;;;20.07;17.97;;;1.10;99.90;;;;;;5013627;28;20462;-79
2023/12/17 04:26:27;;;;;;;18.47;16.67;;;1.10;99.90;;;;;;5013229;28;20443;-79
2023/12/17 04:28:53;;;;;;;18.03;16.23;;;1.10;99.90;;;;;;5013248;28;20450;-78
2023/12/17 04:31:20;;;;;;;18.20;16.50;;;1.10;99.90;;;;;;5012773;28;20521;-79
2023/12/17 04:33:47;;;;;;;19.73;16.90;;;1.10;99.90;;;;;;5012751;28;20459;-79
2023/12/17 04:36:14;;;;;;;17.83;16.03;;;1.10;99.90;;;;;;5013268;28;20486;-79
2023/12/17 04:38:41;;;;;;;18.73;16.80;;;1.30;99.90;;;;;;5012991;28;20499;-79
2023/12/17 04:41:09;;;;;;;17.93;16.23;;;1.10;99.90;;;;;;5012878;28;20488;-79
2023/12/17 04:43:36;;;;;;;19.13;17.13;;;1.10;99.90;;;;;;5012932;28;20443;-80
2023/12/17 04:46:02;;;;;;;22.20;17.80;;;1.10;99.90;;;;;;5013458;28;20441;-80
2023/12/17 04:48:29;;;;;;;18.20;15.37;;;1.10;99.90;;;;;;5012669;28;20509;-78
2023/12/17 04:50:56;;;;;;;17.47;15.60;;;1.10;99.90;;;;;;5012561;28;20816;-79
2023/12/17 04:53:22;;;;;;;18.13;16.17;;;1.10;99.90;;;;;;5013530;28;20470;-81
2023/12/17 04:55:49;;;;;;;19.43;17.40;;;1.10;99.90;;;;;;5013370;28;20505;-80
2023/12/17 04:58:17;;;;;;;18.17;16.27;;;1.10;99.90;;;;;;5012867;28;20942;-79
2023/12/17 05:00:44;;;;;;;18.73;16.83;;;1.10;99.90;;;;;;5014850;28;20894;-80
2023/12/17 05:03:11;;;;;;;17.83;16.00;;;1.10;99.90;;;;;;5017581;28;20451;-79
2023/12/17 05:05:37;;;;;;;16.83;15.17;;;1.10;99.90;;;;;;5017210;28;20440;-78
2023/12/17 05:08:04;;;;;;;18.03;16.37;;;1.10;99.90;;;;;;5017202;28;20447;-79
2023/12/17 05:10:31;;;;;;;18.90;17.00;;;1.10;99.90;;;;;;5016893;28;20467;-80
2023/12/17 05:12:57;;;;;;;18.27;16.37;;;1.00;99.90;;;;;;5017193;28;20428;-80
2023/12/17 05:15:25;;;;;;;20.20;16.27;;;1.10;99.90;;;;;;5017203;28;20449;-79
2023/12/17 05:17:52;;;;;;;18.87;16.90;;;1.00;99.90;;;;;;5017539;28;20448;-81
2023/12/17 05:20:19;;;;;;;17.47;15.77;;;1.00;99.90;;;;;;5017103;28;20977;-80
2023/12/17 05:22:46;;;;;;;17.70;15.83;;;1.20;99.90;;;;;;5016794;28;21042;-80
2023/12/17 05:25:13;;;;;;;18.13;16.33;;;1.00;99.90;;;;;;5017676;28;20451;-80
2023/12/17 05:27:39;;;;;;;18.20;15.80;;;1.00;99.90;;;;;;5016733;28;20455;-79
2023/12/17 05:30:07;;;;;;;20.03;17.47;;;1.00;99.90;;;;;;5016389;28;20838;-79
2023/12/17 05:32:35;;;;;;;17.87;16.10;;;1.00;99.90;;;;;;5017085;28;20440;-81
2023/12/17 05:35:02;;;;;;;19.63;17.63;;;1.00;99.90;;;;;;5017108;28;20450;-81
2023/12/17 05:37:29;;;;;;;19.43;15.50;;;1.00;99.90;;;;;;5015808;28;20453;-78
2023/12/17 05:39:56;;;;;;;18.17;16.37;;;1.00;99.90;;;;;;5016591;28;20467;-80
2023/12/17 05:42:22;;;;;;;18.30;16.30;;;1.20;99.90;;;;;;5015994;28;20526;-79
2023/12/17 05:44:49;;;;;;;19.23;17.17;;;1.00;99.90;;;;;;5015806;28;20452;-80
2023/12/17 05:47:16;;;;;;;17.67;15.87;;;1.00;99.90;;;;;;5016097;28;20444;-79
2023/12/17 05:49:44;;;;;;;21.03;16.70;;;1.00;99.90;;;;;;5015467;28;20467;-79
2023/12/17 05:52:10;;;;;;;19.00;17.07;;;0.90;99.90;;;;;;5016218;28;20449;-81
2023/12/17 05:54:38;;;;;;;18.37;16.53;;;0.90;99.90;;;;;;5016083;28;20442;-79
2023/12/17 05:57:06;;;;;;;18.60;16.60;;;0.90;99.90;;;;;;5016360;28;20812;-78
2023/12/17 05:59:32;;;;;;;17.60;15.70;;;0.90;99.90;;;;;;5015099;28;20937;-78
2023/12/17 06:01:59;;;;;;;20.03;17.90;;;0.90;99.90;;;;;;5015563;28;20475;-78
2023/12/17 06:04:26;;;;;;;19.13;17.13;;;1.30;99.90;;;;;;5015388;28;20968;-79
2023/12/17 06:06:55;;;;;;;19.07;17.07;;;0.80;99.90;;;;;;5015116;28;20479;-79
2023/12/17 06:09:22;;;;;;;19.87;17.87;;;0.80;99.90;;;;;;5015287;28;20987;-79
2023/12/17 06:11:49;;;;;;;17.97;16.17;;;0.80;99.90;;;;;;5015058;28;20447;-79
2023/12/17 06:14:17;;;;;;;19.60;17.67;;;0.80;99.90;;;;;;5015142;28;20451;-79
2023/12/17 06:16:44;;;;;;;19.27;17.30;;;0.80;99.90;;;;;;5015831;28;20531;-80
2023/12/17 06:19:11;;;;;;;18.17;16.33;;;0.80;99.90;;;;;;5016033;28;20506;-79
2023/12/17 06:21:38;;;;;;;19.33;17.30;;;0.80;99.90;;;;;;5014892;28;20537;-80
2023/12/17 06:24:07;;;;;;;18.40;16.10;;;0.80;99.90;;;;;;5015043;28;20447;-80
2023/12/17 06:26:36;;;;;;;20.83;17.33;;;0.70;99.90;;;;;;5014724;28;20443;-79
2023/12/17 06:29:02;;;;;;;17.60;15.80;;;0.80;99.90;;;;;;5014962;28;20852;-80
2023/12/17 06:31:29;;;;;;;20.10;17.20;;;0.80;99.90;;;;;;5014343;28;20460;-79
2023/12/17 06:33:56;;;;;;;19.27;17.27;;;0.90;99.90;;;;;;5014742;28;20443;-79
2023/12/17 06:36:23;;;;;;;17.90;16.10;;;1.10;99.90;;;;;;5015013;28;20451;-79
2023/12/17 06:38:49;;;;;;;26.03;17.23;;;0.70;99.90;;;;;;5015095;28;20432;-80
2023/12/17 06:41:17;;;;;;;18.80;17.00;;;0.70;99.90;;;;;;5015010;28;20475;-80
2023/12/17 06:43:44;;;;;;;19.90;18.00;;;0.80;99.90;;;;;;5014803;28;20506;-79
2023/12/17 06:46:16;;;;;;;24.57;16.57;;;0.90;99.90;;;;;;5014870;28;20540;-79
2023/12/17 06:48:43;;;;;;;18.87;16.90;;;0.70;99.90;;;;;;5015280;28;20443;-80
2023/12/17 06:51:10;;;;;;;19.73;17.73;;;0.70;99.90;;;;;;5014624;28;20471;-79
2023/12/17 06:53:37;;;;;;;19.60;17.30;;;1.00;99.90;;;;;;5015395;28;20703;-79
2023/12/17 06:56:04;;;;;;;19.27;17.17;;;0.70;99.90;;;;;;5014679;28;20851;-80
2023/12/17 06:58:32;;;;;;;18.80;16.80;;;0.70;99.90;;;;;;5014258;28;20455;-78
2023/12/17 07:00:59;;;;;;;18.93;17.00;;;0.70;99.90;;;;;;5014213;28;20459;-79
2023/12/17 07:03:25;;;;;;;19.10;16.83;;;0.70;99.90;;;;;;5014517;28;20827;-80
2023/12/17 07:05:52;;;;;;;20.13;17.00;;;0.90;99.90;;;;;;5014569;28;20839;-79
2023/12/17 07:08:19;;;;;;;17.90;16.00;;;1.00;99.90;;;;;;5014562;28;20455;-79
2023/12/17 07:10:45;;;;;;;19.23;17.23;;;0.70;99.90;;;;;;5014082;28;20483;-80
2023/12/17 07:13:12;;;;;;;19.53;17.50;;;0.70;99.90;;;;;;5014207;28;20447;-79
2023/12/17 07:15:40;;;;;;;19.40;16.63;;;1.10;99.90;;;;;;5017412;28;20593;-80
2023/12/17 07:18:07;;;;;;;20.47;17.40;;;0.70;99.90;;;;;;5015414;28;20442;-79
2023/12/17 07:20:33;;;;;;;17.33;15.53;;;0.70;99.90;;;;;;5031770;28;20471;-80
2023/12/17 07:23:00;;;;;;;18.50;16.57;;;0.70;99.90;;;;;;5022098;28;20530;-80
2023/12/17 07:25:27;;;;;;;17.30;15.53;;;0.90;99.90;;;;;;5013778;28;20472;-79
2023/12/17 07:27:54;;;;;;;17.33;15.60;;;0.80;99.90;;;;;;5015106;28;20448;-80
2023/12/17 07:30:21;;;;;;;17.90;16.20;;;0.80;99.90;;;;;;5015243;28;20558;-79
2023/12/17 07:32:49;;;;;;;17.67;15.90;;;1.00;99.90;;;;;;5014632;28;20462;-79
2023/12/17 07:35:16;;;;;;;17.97;16.00;;;0.80;99.90;;;;;;5014092;28;20889;-79
2023/12/17 07:37:43;;;;;;;17.50;15.73;;;0.80;99.90;;;;;;5014497;28;20428;-79
2023/12/17 07:40:10;;;;;;;16.83;15.03;;;0.80;99.90;;;;;;5014101;28;20463;-79
2023/12/17 07:42:36;;;;;;;19.03;17.03;;;1.20;99.90;;;;;;5013920;28;20483;-80
2023/12/17 07:45:04;;;;;;;20.50;18.40;;;1.50;99.90;;;;;;5014558;28;20459;-79
2023/12/17 07:47:32;;;;;;;18.73;16.70;;;1.50;99.90;;;;;;5014870;28;20448;-80
2023/12/17 07:50:01;;;;;;;19.33;17.33;;;1.60;99.90;;;;;;5014289;28;20468;-80
2023/12/17 07:52:27;;;;;;;19.40;17.47;;;1.60;99.90;;;;;;5013499;28;20446;-79
2023/12/17 07:54:54;;;;;;;18.50;16.70;;;1.60;99.90;;;;;;5013614;28;20436;-78
2023/12/17 07:57:21;;;;;;;18.83;16.90;;;1.40;99.90;;;;;;5014447;28;20966;-80
2023/12/17 07:59:48;;;;;;;19.40;17.40;;;1.30;99.90;;;;;;5014073;28;20499;-80
2023/12/17 08:02:15;;;;;;;20.47;18.37;;;1.30;99.90;;;;;;5013654;28;20499;-79
2023/12/17 08:04:42;;;;;;;18.40;16.03;;;1.30;99.90;;;;;;5013903;28;20484;-78
2023/12/17 08:07:10;;;;;;;20.30;17.90;;;1.70;99.90;;;;;;5013065;28;20455;-79
2023/12/17 08:09:37;;;;;;;18.73;16.83;;;1.30;99.90;;;;;;5014136;28;20476;-80
2023/12/17 08:12:05;;;;;;;22.00;17.60;;;1.40;99.90;;;;;;5013957;28;20442;-79
2023/12/17 08:14:32;;;;;;;36.70;17.83;;;1.40;99.90;;;;;;5014494;28;20805;-79
2023/12/17 08:16:59;;;;;;;19.50;17.40;;;1.40;99.90;;;;;;5013738;28;20460;-78
2023/12/17 08:19:26;;;;;;;18.70;16.90;;;1.40;99.90;;;;;;5012888;28;20503;-78
2023/12/17 08:21:52;;;;;;;19.03;17.13;;;1.50;99.90;;;;;;5012739;28;20483;-79
2023/12/17 08:24:20;;;;;;;18.63;16.73;;;1.60;99.90;;;;;;5013835;28;20822;-81
2023/12/17 08:26:47;;;;;;;18.90;17.10;;;1.60;99.90;;;;;;5014414;28;20809;-79
2023/12/17 08:29:14;;;;;;;17.80;15.80;;;1.70;99.90;;;;;;5014709;28;20815;-79
2023/12/17 08:31:44;;;;;;;18.63;16.73;;;1.70;99.90;;;;;;5012484;28;20472;-80
2023/12/17 08:34:11;;;;;;;17.30;15.53;;;1.80;99.90;;;;;;5013132;28;20482;-81
2023/12/17 08:36:41;;;;;;;17.67;15.80;;;1.80;99.90;;;;;;5016181;28;20438;-79
2023/12/17 08:39:07;;;;;;;19.10;16.80;;;1.90;99.90;;;;;;5017718;28;20488;-81
2023/12/17 08:41:35;;;;;;;17.73;15.93;;;2.00;99.90;;;;;;5017157;28;20474;-80
2023/12/17 08:44:02;;;;;;;17.20;15.50;;;2.20;99.90;;;;;;5016918;28;20431;-80
2023/12/17 08:46:29;;;;;;;17.10;15.40;;;2.30;99.90;;;;;;5018011;28;20540;-80
2023/12/17 08:48:56;;;;;;;16.97;15.37;;;2.50;99.90;;;;;;5019157;28;20441;-79
2023/12/17 08:51:22;;;;;;;16.57;14.93;;;2.60;99.90;;;;;;5019018;28;20468;-80
2023/12/17 08:53:49;;;;;;;16.80;15.00;;;2.70;99.90;;;;;;5018985;28;20439;-80
2023/12/17 08:56:16;;;;;;;16.83;15.07;;;2.80;99.90;;;;;;5019323;28;20456;-81
2023/12/17 08:58:44;;;;;;;16.37;14.67;;;3.00;99.90;;;;;;5018793;28;20433;-80
2023/12/17 09:01:12;;;;;;;15.53;14.07;;;3.10;99.90;;;;;;5017921;28;20849;-80
2023/12/17 09:03:38;;;;;;;14.97;13.53;;;3.10;99.90;;;;;;5018946;28;21060;-78
2023/12/17 09:06:06;;;;;;;15.20;13.80;;;3.40;99.90;;;;;;5019241;28;20443;-79
2023/12/17 09:08:32;;;;;;;15.60;13.93;;;3.60;99.90;;;;;;5017914;28;20470;-80
2023/12/17 09:10:59;;;;;;;15.47;13.87;;;3.60;99.90;;;;;;5018418;28;20461;-79
2023/12/17 09:13:26;;;;;;;15.03;13.67;;;3.90;99.90;;;;;;5020134;28;20446;-79
2023/12/17 09:15:54;;;;;;;15.83;14.20;;;4.10;99.90;;;;;;5019378;28;20434;-81
2023/12/17 09:18:21;;;;;;;15.77;14.27;;;4.30;99.90;;;;;;5018995;28;20502;-81
2023/12/17 09:20:47;;;;;;;16.30;14.70;;;4.20;99.90;;;;;;5019109;28;20458;-80
2023/12/17 09:23:14;;;;;;;14.47;13.23;;;4.10;99.90;;;;;;5018177;28;20477;-81
2023/12/17 09:25:41;;;;;;;15.63;14.10;;;4.50;99.90;;;;;;5019559;28;20443;-80
2023/12/17 09:28:08;;;;;;;14.73;13.40;;;4.40;99.90;;;;;;5018326;28;20459;-79
2023/12/17 09:30:34;;;;;;;14.50;13.20;;;4.70;99.90;;;;;;5018610;28;20465;-80
2023/12/17 09:33:02;;;;;;;14.90;13.53;;;4.60;99.90;;;;;;5019545;28;20539;-81
2023/12/17 09:35:29;;;;;;;15.50;13.90;;;4.60;99.90;;;;;;5019405;28;20446;-80
2023/12/17 09:37:56;;;;;;;16.03;14.37;;;4.90;99.90;;;;;;5019308;28;20455;-79
2023/12/17 09:40:23;;;;;;;15.03;13.63;;;5.20;99.90;;;;;;5019547;28;20466;-80
2023/12/17 09:42:52;;;;;;;15.20;13.80;;;5.40;99.90;;;;;;5018202;28;20856;-79
2023/12/17 09:45:18;;;;;;;14.67;13.17;;;5.60;99.90;;;;;;5019954;28;20542;-79
2023/12/17 09:47:45;;;;;;;14.40;13.20;;;5.80;99.90;;;;;;5020594;28;20458;-82
2023/12/17 09:50:13;;;;;;;14.43;13.07;;;5.90;99.90;;;;;;5019995;28;20470;-80
2023/12/17 09:52:41;;;;;;;13.33;12.23;;;6.10;99.90;;;;;;5020564;28;20438;-80
2023/12/17 09:55:10;;;;;;;13.97;12.67;;;6.00;99.90;;;;;;5019291;28;20431;-81
2023/12/17 09:57:37;;;;;;;13.80;12.50;;;5.60;99.90;;;;;;5018419;28;20439;-80
2023/12/17 10:00:09;;;;;;;14.27;12.83;;;6.10;99.90;;;;;;5021271;28;20463;-81
2023/12/17 10:02:36;;;;;;;14.60;13.30;;;5.70;99.90;;;;;;5020474;28;20519;-80
2023/12/17 10:05:03;;;;;;;15.40;13.90;;;5.70;99.90;;;;;;5020343;28;20452;-80
2023/12/17 10:07:31;;;;;;;12.50;11.30;;;5.70;99.90;;;;;;5019154;28;20458;-80
2023/12/17 10:09:58;;;;;;;15.53;13.43;;;6.30;99.90;;;;;;5019480;28;20498;-81
2023/12/17 10:12:24;;;;;;;13.47;12.27;;;6.50;99.90;;;;;;5019627;28;20972;-80
2023/12/17 10:14:53;;;;;;;13.67;12.37;;;7.00;99.90;;;;;;5019287;28;20857;-82
2023/12/17 10:17:20;;;;;;;13.80;12.50;;;7.10;99.90;;;;;;5018158;28;20494;-79
2023/12/17 10:19:51;;;;;;;15.47;13.90;;;6.90;99.90;;;;;;5019478;28;20470;-79
2023/12/17 10:22:19;;;;;;;14.03;12.77;;;6.70;99.90;;;;;;5023129;28;20444;-80
2023/12/17 10:24:47;;;;;;;13.90;12.70;;;7.20;99.90;;;;;;5031018;28;20447;-81
2023/12/17 10:27:19;;;;;;;13.87;12.47;;;7.40;99.90;;;;;;5019662;28;20827;-80
2023/12/17 10:29:50;;;;;;;14.40;13.10;;;7.60;99.90;;;;;;5017976;28;20506;-83
2023/12/17 10:32:20;;;;;;;13.77;12.47;;;7.70;99.90;;;;;;5017499;28;20991;-80
2023/12/17 10:34:48;;;;;;;14.73;13.23;;;7.70;99.90;;;;;;5019857;28;20475;-80
2023/12/17 10:37:18;;;;;;;14.37;13.07;;;7.60;99.90;;;;;;5019893;28;20449;-81
2023/12/17 10:39:47;;;;;;;12.50;11.40;;;7.70;99.90;;;;;;5020040;28;20471;-80
2023/12/17 10:42:15;;;;;;;13.30;12.00;;;7.60;99.90;;;;;;5021104;28;20447;-80
2023/12/17 10:44:44;;;;;;;14.40;13.10;;;7.70;99.90;;;;;;5021213;28;20430;-82
2023/12/17 10:47:12;;;;;;;14.43;13.13;;;8.00;99.90;;;;;;5020801;28;20439;-80
2023/12/17 10:49:40;;;;;;;14.27;12.97;;;8.00;99.90;;;;;;5020026;28;20436;-81
2023/12/17 10:52:07;;;;;;;13.47;12.10;;;7.50;99.90;;;;;;5019841;28;20449;-81
2023/12/17 10:54:34;;;;;;;13.30;12.20;;;7.20;99.90;;;;;;5019534;28;20446;-83
2023/12/17 10:57:04;;;;;;;13.53;12.43;;;7.40;99.90;;;;;;5021104;28;20434;-81
2023/12/17 10:59:36;;;;;;;13.77;12.40;;;7.90;99.90;;;;;;5019192;28;20439;-80
2023/12/17 11:02:06;;;;;;;13.33;12.13;;;7.90;99.90;;;;;;5019715;28;20432;-81
2023/12/17 11:04:32;;;;;;;15.53;13.63;;;7.70;99.90;;;;;;5018648;28;20472;-82
2023/12/17 11:07:00;;;;;;;14.70;13.27;;;7.80;99.90;;;;;;5015313;28;20451;-79
2023/12/17 11:09:27;;;;;;;14.17;12.87;;;8.00;99.90;;;;;;5017352;28;20436;-79
2023/12/17 11:11:54;;;;;;;14.17;12.77;;;8.20;99.90;;;;;;5016300;28;20443;-80
2023/12/17 11:14:22;;;;;;;13.63;12.40;;;8.30;99.90;;;;;;5018013;28;20541;-81
2023/12/17 11:16:49;;;;;;;13.60;12.40;;;8.30;99.90;;;;;;5017768;28;20461;-81
2023/12/17 11:19:18;;;;;;;12.90;11.80;;;8.50;99.90;;;;;;5017211;28;20466;-80
2023/12/17 11:21:45;;;;;;;13.43;12.33;;;8.40;99.90;;;;;;5017945;28;20478;-81
2023/12/17 11:24:12;;;;;;;14.03;12.83;;;8.40;99.90;;;;;;5017166;28;20479;-79
2023/12/17 11:26:41;;;;;;;14.20;13.00;;;8.50;99.90;;;;;;5016681;28;20452;-79
2023/12/17 11:29:35;;;;;;;15.53;14.10;;;8.40;99.90;;;;;;5016776;28;20558;-81
2023/12/17 11:32:02;;;;;;;13.93;12.73;;;8.40;99.90;;;;;;5028284;28;20431;-83
2023/12/17 11:34:30;;;;;;;14.63;13.30;;;8.40;99.90;;;;;;5037392;28;20459;-81
2023/12/17 11:36:57;;;;;;;17.57;15.87;;;8.30;99.90;;;;;;5037391;28;20439;-84
2023/12/17 11:39:25;;;;;;;14.00;12.70;;;8.20;99.90;;;;;;5036528;28;20462;-82
2023/12/17 11:41:52;;;;;;;13.63;12.50;;;8.20;99.90;;;;;;5036537;28;20438;-84
2023/12/17 11:44:18;;;;;;;15.10;13.80;;;8.20;99.90;;;;;;5037356;28;20483;-84
2023/12/17 11:46:48;;;;;;;15.67;14.23;;;8.10;99.90;;;;;;5036010;28;20517;-81
2023/12/17 11:49:23;;;;;;;14.40;13.00;;;8.00;99.90;;;;;;5036433;28;20432;-84
2023/12/17 11:51:50;;;;;;;15.40;14.00;;;7.90;99.90;;;;;;5037334;28;20455;-85
2023/12/17 11:54:20;;;;;;;15.40;14.00;;;7.90;99.90;;;;;;5037506;28;20442;-85
2023/12/17 11:56:47;;;;;;;15.57;13.97;;;7.70;99.90;;;;;;5033145;28;20464;-79
2023/12/17 11:59:14;;;;;;;15.77;14.33;;;7.70;99.90;;;;;;5025207;28;20439;-81
2023/12/17 12:01:40;;;;;;;15.23;13.73;;;7.60;99.90;;;;;;5019460;28;20463;-82
2023/12/17 12:04:09;;;;;;;14.80;13.17;;;7.60;99.90;;;;;;5022783;28;20486;-81
2023/12/17 12:06:35;;;;;;;14.73;13.43;;;7.50;99.90;;;;;;5022573;28;20460;-80
2023/12/17 12:09:03;;;;;;;16.00;14.50;;;7.50;99.90;;;;;;5024782;28;20841;-80
2023/12/17 12:11:34;;;;;;;14.83;13.43;;;7.60;99.90;;;;;;5025921;28;20458;-80
2023/12/17 12:14:01;;;;;;;15.90;14.30;;;7.60;99.90;;;;;;5020913;28;20441;-83
2023/12/17 12:16:28;;;;;;;14.37;13.07;;;7.70;99.90;;;;;;5017687;28;20444;-80
2023/12/17 12:19:03;;;;;;;14.40;13.07;;;7.70;99.90;;;;;;5033070;28;20449;-82
2023/12/17 12:21:32;;;;;;;14.83;13.27;;;7.60;99.90;;;;;;5031829;28;20555;-82
2023/12/17 12:24:00;;;;;;;14.60;13.37;;;7.70;99.90;;;;;;5032816;28;20486;-82
2023/12/17 12:26:27;;;;;;;14.00;12.80;;;7.70;99.90;;;;;;5030048;28;20478;-80
2023/12/17 12:28:58;;;;;;;13.63;12.40;;;7.70;99.90;;;;;;5026597;28;20472;-82
2023/12/17 12:31:25;;;;;;;14.67;13.20;;;7.60;99.90;;;;;;5025606;28;21042;-80
2023/12/17 12:33:52;;;;;;;14.00;12.50;;;7.70;99.90;;;;;;5018303;28;20454;-79
2023/12/17 12:36:19;;;;;;;13.97;12.77;;;7.80;99.90;;;;;;5018032;28;20445;-82